Observation data for Guthrie on 06/14/2019      Previous  Date  Next       Current Mesonet Observations  Soil Data  Daily Summary Page  Observations in Plain Language
KPFS 140500Z 15011G16KT 22/12 A2998 RMK A01 T02200123  RH  056%=      5-min Rain = 0
KPFS 140505Z 15011KT 22/12 A2998 RMK A01 T02200123  RH  056%=      5-min Rain = 0
KPFS 140510Z 15011KT 22/12 A2998 RMK A01 T02200123  RH  056%=      5-min Rain = 0
KPFS 140515Z 15012KT 22/12 A2998 RMK A01 T02200123  RH  056%=      5-min Rain = 0
KPFS 140520Z 16011G18KT 22/12 A2998 RMK A01 T02210123  RH  056%=      5-min Rain = 0
KPFS 140525Z 16012KT 22/12 A2998 RMK A01 T02210123  RH  056%=      5-min Rain = 0
KPFS 140530Z 16013KT 22/12 A2998 RMK A01 T02200123  RH  056%=      5-min Rain = 0
KPFS 140535Z 15012KT 22/12 A2999 RMK A01 T02200123  RH  056%=      5-min Rain = 0
KPFS 140540Z 16012KT 22/12 A2999 RMK A01 T02200123  RH  056%=      5-min Rain = 0
KPFS 140545Z 16013G18KT 22/12 A2999 RMK A01 T02210122  RH  056%=      5-min Rain = 0
KPFS 140550Z 15014KT 22/12 A2998 RMK A01 T02200122  RH  056%=      5-min Rain = 0
KPFS 140555Z 15013KT 22/12 A2998 RMK A01 T02200122  RH  056%=      5-min Rain = 0
KPFS 140600Z 15013KT 22/12 A2998 RMK A01 T02200122  RH  056%=      5-min Rain = 0
KPFS 140605Z 16012G17KT 22/12 A2998 RMK A01 T02210122  RH  055%=      5-min Rain = 0
KPFS 140610Z 16012G17KT 22/12 A2999 RMK A01 T02210121  RH  055%=      5-min Rain = 0
KPFS 140615Z 16009KT 22/12 A30 RMK A01 T02200122  RH  056%=      5-min Rain = 0
KPFS 140620Z 15009KT 22/12 A30 RMK A01 T02200122  RH  056%=      5-min Rain = 0
KPFS 140625Z 15006KT 22/12 A30 RMK A01 T02190122  RH  056%=      5-min Rain = 0
KPFS 140630Z 15008KT 22/12 A2999 RMK A01 T02170123  RH  057%=      5-min Rain = 0
KPFS 140635Z 14008KT 22/12 A2999 RMK A01 T02150123  RH  058%=      5-min Rain = 0
KPFS 140640Z 14008KT 22/12 A2999 RMK A01 T02150123  RH  058%=      5-min Rain = 0
KPFS 140645Z 14008KT 22/12 A2999 RMK A01 T02150123  RH  058%=      5-min Rain = 0
KPFS 140650Z 14008KT 21/12 A2999 RMK A01 T02140123  RH  058%=      5-min Rain = 0
KPFS 140655Z 15008KT 21/12 A2999 RMK A01 T02130124  RH  059%=      5-min Rain = 0
KPFS 140700Z 15008KT 21/12 A2999 RMK A01 T02110124  RH  060%=      5-min Rain = 0
KPFS 140705Z 15010KT 21/12 A2998 RMK A01 T02100124  RH  060%=      5-min Rain = 0
KPFS 140710Z 15010KT 21/12 A2998 RMK A01 T02090124  RH  060%=      5-min Rain = 0
KPFS 140715Z 15010KT 21/12 A2997 RMK A01 T02080124  RH  061%=      5-min Rain = 0
KPFS 140720Z 14011KT 21/12 A2997 RMK A01 T02070123  RH  061%=      5-min Rain = 0
KPFS 140725Z 14010KT 21/12 A2998 RMK A01 T02070123  RH  061%=      5-min Rain = 0
KPFS 140730Z 14009KT 21/12 A2998 RMK A01 T02070124  RH  061%=      5-min Rain = 0
KPFS 140735Z 14009KT 21/12 A2998 RMK A01 T02070123  RH  061%=      5-min Rain = 0
KPFS 140740Z 14009KT 21/12 A2998 RMK A01 T02070124  RH  061%=      5-min Rain = 0
KPFS 140745Z 14010KT 21/12 A2997 RMK A01 T02060124  RH  061%=      5-min Rain = 0
KPFS 140750Z 14010KT 21/12 A2997 RMK A01 T02060123  RH  061%=      5-min Rain = 0
KPFS 140755Z 14010KT 21/12 A2997 RMK A01 T02060123  RH  061%=      5-min Rain = 0
KPFS 140800Z 14009KT 21/12 A2997 RMK A01 T02060123  RH  061%=      5-min Rain = 0
KPFS 140805Z 14009KT 21/12 A2997 RMK A01 T02060123  RH  061%=      5-min Rain = 0
KPFS 140810Z 14009KT 21/12 A2997 RMK A01 T02050124  RH  062%=      5-min Rain = 0
KPFS 140815Z 14009KT 21/12 A2998 RMK A01 T02050124  RH  062%=      5-min Rain = 0
KPFS 140820Z 13008KT 21/12 A2998 RMK A01 T02060123  RH  061%=      5-min Rain = 0
KPFS 140825Z 11004KT 21/12 A2999 RMK A01 T02060124  RH  061%=      5-min Rain = 0
KPFS 140830Z 35006KT 20/13 A30 RMK A01 T02040126  RH  063%=      5-min Rain = 0
KPFS 140835Z 36007KT 20/13 A3001 RMK A01 T02020127  RH  065%=      5-min Rain = 0
KPFS 140840Z 04004KT 20/13 A3001 RMK A01 T02040127  RH  064%=      5-min Rain = 0
KPFS 140845Z 03005KT 21/13 A3001 RMK A01 T02050126  RH  063%=      5-min Rain = 0
KPFS 140850Z 01007KT 21/13 A3002 RMK A01 T02060126  RH  062%=      5-min Rain = 0
KPFS 140855Z 01008KT 21/13 A3002 RMK A01 T02070126  RH  062%=      5-min Rain = 0
KPFS 140900Z 02006KT 21/13 A3002 RMK A01 T02080126  RH  062%=      5-min Rain = 0
KPFS 140905Z 05004KT 21/13 A3002 RMK A01 T02090126  RH  062%=      5-min Rain = 0
KPFS 140910Z 05004KT 21/13 A3002 RMK A01 T02090126  RH  061%=      5-min Rain = 0
KPFS 140915Z 04004KT 21/13 A3002 RMK A01 T02090127  RH  062%=      5-min Rain = 0
KPFS 140920Z 06004KT 21/13 A3001 RMK A01 T02060127  RH  063%=      5-min Rain = 0
KPFS 140925Z 08004KT 21/13 A3001 RMK A01 T02050127  RH  063%=      5-min Rain = 0
KPFS 140930Z 10004KT 20/13 A30 RMK A01 T02030127  RH  064%=      5-min Rain = 0
KPFS 140935Z 11004KT 20/13 A30 RMK A01 T02010128  RH  065%=      5-min Rain = 0
KPFS 140940Z 12006KT 20/13 A2999 RMK A01 T02000128  RH  066%=      5-min Rain = 0
KPFS 140945Z 12007KT 20/13 A2999 RMK A01 T01990129  RH  067%=      5-min Rain = 0
KPFS 140950Z 13007KT 20/13 A2998 RMK A01 T01960130  RH  068%=      5-min Rain = 0
KPFS 140955Z 13008KT 20/13 A2998 RMK A01 T01950131  RH  069%=      5-min Rain = 0
KPFS 141000Z 13010KT 20/13 A2998 RMK A01 T01970130  RH  068%=      5-min Rain = 0
KPFS 141005Z 14013KT 20/13 A2997 RMK A01 T01970130  RH  068%=      5-min Rain = 0
KPFS 141010Z 14015KT 20/13 A2996 RMK A01 T01970129  RH  067%=      5-min Rain = 0
KPFS 141015Z 14014KT 20/13 A2995 RMK A01 T01960129  RH  068%=      5-min Rain = 0
KPFS 141020Z 14014KT 20/13 A2995 RMK A01 T01970129  RH  067%=      5-min Rain = 0
KPFS 141025Z 15014G19KT 20/13 A2995 RMK A01 T01980129  RH  067%=      5-min Rain = 0
KPFS 141030Z 15014G19KT 20/13 A2995 RMK A01 T01980129  RH  067%=      5-min Rain = 0
KPFS 141035Z 15015G20KT 20/13 A2994 RMK A01 T01990129  RH  067%=      5-min Rain = 0
KPFS 141040Z 15015G20KT 20/13 A2994 RMK A01 T01990129  RH  067%=      5-min Rain = 0
KPFS 141045Z 15016G21KT 20/13 A2994 RMK A01 T02000130  RH  066%=      5-min Rain = 0
KPFS 141050Z 15015G21KT 20/13 A2994 RMK A01 T02010130  RH  066%=      5-min Rain = 0
KPFS 141055Z 16017G22KT 20/13 A2994 RMK A01 T02010130  RH  066%=      5-min Rain = 0
KPFS 141100Z 16016G21KT 20/13 A2994 RMK A01 T02020131  RH  066%=      5-min Rain = 0
KPFS 141105Z 16015KT 20/13 A2994 RMK A01 T02010131  RH  067%=      5-min Rain = 0
KPFS 141110Z 15015G20KT 20/13 A2994 RMK A01 T02010132  RH  067%=      5-min Rain = 0
KPFS 141115Z 15015G20KT 20/13 A2994 RMK A01 T02000133  RH  068%=      5-min Rain = 0
KPFS 141120Z 16013G18KT 20/13 A2995 RMK A01 T02000134  RH  068%=      5-min Rain = 0
KPFS 141125Z 16013G20KT 20/13 A2995 RMK A01 T02000134  RH  068%=      5-min Rain = 0
KPFS 141130Z 16011G18KT 20/14 A2996 RMK A01 T02010135  RH  069%=      5-min Rain = 0
KPFS 141135Z 16009KT 20/14 A2997 RMK A01 T02010136  RH  069%=      5-min Rain = 0
KPFS 141140Z 16008KT 20/14 A2997 RMK A01 T02010136  RH  069%=      5-min Rain = 0
KPFS 141145Z 15006KT 20/14 A2997 RMK A01 T02000137  RH  070%=      5-min Rain = 0
KPFS 141150Z 12002KT 20/14 A2997 RMK A01 T01990138  RH  071%=      5-min Rain = 0
KPFS 141155Z 12005KT 20/14 A2997 RMK A01 T01980138  RH  072%=      5-min Rain = 0
KPFS 141200Z 14004KT 20/14 A2997 RMK A01 T01970139  RH  072%=      5-min Rain = 0
KPFS 141205Z 14004KT 20/14 A2996 RMK A01 T01960140  RH  073%=      5-min Rain = 0
KPFS 141210Z 15005KT 20/14 A2996 RMK A01 T01960141  RH  074%=      5-min Rain = 0
KPFS 141215Z 15005KT 20/14 A2995 RMK A01 T01960142  RH  074%=      5-min Rain = 0
KPFS 141220Z 15005KT 20/14 A2995 RMK A01 T01960143  RH  075%=      5-min Rain = 0
KPFS 141225Z 16005G10KT 20/14 A2996 RMK A01 T01960144  RH  075%=      5-min Rain = 0
KPFS 141230Z 16007KT 20/15 A2996 RMK A01 T01970145  RH  075%=      5-min Rain = 0
KPFS 141235Z 16009KT 20/15 A2995 RMK A01 T01970146  RH  075%=      5-min Rain = 0
KPFS 141240Z 16012KT 20/15 A2993 RMK A01 T01970147  RH  076%=      5-min Rain = 0
KPFS 141245Z 16014G20KT 20/15 A2993 RMK A01 T01990148  RH  076%=      5-min Rain = 0
KPFS 141250Z 17009G16KT 20/15 A2994 RMK A01 T02020150  RH  075%=      5-min Rain = 0
KPFS 141255Z 17009KT 20/15 A2995 RMK A01 T02030151  RH  075%=      5-min Rain = 0
KPFS 141300Z 17011G16KT 20/15 A2993 RMK A01 T02030153  RH  076%=      5-min Rain = 0
KPFS 141305Z 17012G17KT 20/15 A2993 RMK A01 T02040154  RH  076%=      5-min Rain = 0
KPFS 141310Z 17010G15KT 21/16 A2993 RMK A01 T02070155  RH  075%=      5-min Rain = 0
KPFS 141315Z 18008KT 21/16 A2994 RMK A01 T02090156  RH  075%=      5-min Rain = 0
KPFS 141320Z 18007KT 21/16 A2994 RMK A01 T02110157  RH  075%=      5-min Rain = 0
KPFS 141325Z 18010KT 21/16 A2994 RMK A01 T02130158  RH  074%=      5-min Rain = 0
KPFS 141330Z 18011G16KT 21/16 A2993 RMK A01 T02130158  RH  074%=      5-min Rain = 0
KPFS 141335Z 17012G17KT 21/16 A2993 RMK A01 T02140159  RH  074%=      5-min Rain = 0
KPFS 141340Z 17012KT 22/16 A2992 RMK A01 T02160160  RH  074%=      5-min Rain = 0
KPFS 141345Z 17012KT 22/16 A2992 RMK A01 T02180161  RH  073%=      5-min Rain = 0
KPFS 141350Z 17011KT 22/16 A2992 RMK A01 T02180161  RH  073%=      5-min Rain = 0
KPFS 141355Z 17011G16KT 22/16 A2992 RMK A01 T02180162  RH  074%=      5-min Rain = 0
KPFS 141400Z 17012G17KT 22/16 A2992 RMK A01 T02240163  RH  072%=      5-min Rain = 0
KPFS 141405Z 17012G17KT 23/16 A2992 RMK A01 T02290164  RH  070%=      5-min Rain = 0
KPFS 141410Z 17013G19KT 23/17 A2992 RMK A01 T02330165  RH  069%=      5-min Rain = 0
KPFS 141415Z 18014G19KT 23/16 A2992 RMK A01 T02270163  RH  070%=      5-min Rain = 0
KPFS 141420Z 18014G19KT 23/17 A2991 RMK A01 T02300165  RH  070%=      5-min Rain = 0
KPFS 141425Z 18016G22KT 23/17 A2991 RMK A01 T02310165  RH  070%=      5-min Rain = 0
KPFS 141430Z 18018G23KT 24/17 A299 RMK A01 T02360166  RH  068%=      5-min Rain = 0
KPFS 141435Z 19019G25KT 24/17 A2991 RMK A01 T02410167  RH  066%=      5-min Rain = 0
KPFS 141440Z 19018G25KT 25/17 A2991 RMK A01 T02460168  RH  065%=      5-min Rain = 0
KPFS 141445Z 19018G26KT 25/17 A2991 RMK A01 T02470168  RH  065%=      5-min Rain = 0
KPFS 141450Z 19019G27KT 25/17 A299 RMK A01 T02450168  RH  065%=      5-min Rain = 0
KPFS 141455Z 19018G26KT 25/17 A299 RMK A01 T02490169  RH  064%=      5-min Rain = 0
KPFS 141500Z 18016G23KT 25/17 A299 RMK A01 T02500170  RH  064%=      5-min Rain = 0
KPFS 141505Z 19021G27KT 25/17 A299 RMK A01 T02520169  RH  063%=      5-min Rain = 0
KPFS 141510Z 18020G28KT 25/17 A299 RMK A01 T02520168  RH  063%=      5-min Rain = 0
KPFS 141515Z 19019G25KT 26/17 A299 RMK A01 T02550169  RH  062%=      5-min Rain = 0
KPFS 141520Z 19022G29KT 26/17 A2989 RMK A01 T02570169  RH  061%=      5-min Rain = 0
KPFS 141525Z 19021G29KT 26/17 A2989 RMK A01 T02560169  RH  062%=      5-min Rain = 0
KPFS 141530Z 19021G27KT 26/17 A2989 RMK A01 T02570170  RH  062%=      5-min Rain = 0
KPFS 141535Z 19020G26KT 26/17 A2989 RMK A01 T02610171  RH  061%=      5-min Rain = 0
KPFS 141540Z 19020G25KT 26/17 A2989 RMK A01 T02630172  RH  060%=      5-min Rain = 0
KPFS 141545Z 20019G25KT 26/17 A2989 RMK A01 T02580171  RH  062%=      5-min Rain = 0
KPFS 141550Z 20018G26KT 26/17 A2989 RMK A01 T02610173  RH  061%=      5-min Rain = 0
KPFS 141555Z 20017G24KT 27/18 A2989 RMK A01 T02680175  RH  060%=      5-min Rain = 0
KPFS 141600Z 18017G23KT 27/18 A2989 RMK A01 T02710175  RH  059%=      5-min Rain = 0
KPFS 141605Z 19019G27KT 28/17 A2989 RMK A01 T02760173  RH  056%=      5-min Rain = 0
KPFS 141610Z 19019G24KT 28/17 A2989 RMK A01 T02750171  RH  056%=      5-min Rain = 0
KPFS 141615Z 19018G25KT 27/17 A2988 RMK A01 T02740172  RH  056%=      5-min Rain = 0
KPFS 141620Z 19017G23KT 27/17 A2988 RMK A01 T02700171  RH  057%=      5-min Rain = 0
KPFS 141625Z 20019G25KT 28/17 A2988 RMK A01 T02760171  RH  056%=      5-min Rain = 0
KPFS 141630Z 20019G27KT 28/17 A2988 RMK A01 T02820174  RH  055%=      5-min Rain = 0
KPFS 141635Z 19020G27KT 29/17 A2988 RMK A01 T02880172  RH  052%=      5-min Rain = 0
KPFS 141640Z 19020G27KT 29/17 A2988 RMK A01 T02880172  RH  052%=      5-min Rain = 0
KPFS 141645Z 20017G27KT 29/17 A2988 RMK A01 T02920174  RH  051%=      5-min Rain = 0
KPFS 141650Z 20022G29KT 29/17 A2988 RMK A01 T02930168  RH  049%=      5-min Rain = 0
KPFS 141655Z 20023G30KT 29/16 A2987 RMK A01 T02910164  RH  049%=      5-min Rain = 0
KPFS 141700Z 19021G28KT 29/17 A2987 RMK A01 T02870165  RH  050%=      5-min Rain = 0
KPFS 141705Z 19023G31KT 28/17 A2987 RMK A01 T02820166  RH  052%=      5-min Rain = 0
KPFS 141710Z 19021G27KT 28/17 A2987 RMK A01 T02790167  RH  053%=      5-min Rain = 0
KPFS 141715Z 20019G27KT 28/17 A2987 RMK A01 T02800169  RH  054%=      5-min Rain = 0
KPFS 141720Z 19019G25KT 29/17 A2988 RMK A01 T02850171  RH  053%=      5-min Rain = 0
KPFS 141725Z 19019G27KT 29/17 A2987 RMK A01 T02890173  RH  052%=      5-min Rain = 0
KPFS 141730Z 19018G26KT 29/18 A2987 RMK A01 T02920175  RH  052%=      5-min Rain = 0
KPFS 141735Z 19020G26KT 29/17 A2987 RMK A01 T02910172  RH  051%=      5-min Rain = 0
KPFS 141740Z 20021G27KT 29/17 A2987 RMK A01 T02920173  RH  051%=      5-min Rain = 0
KPFS 141745Z 20018G28KT 30/17 A2987 RMK A01 T02970174  RH  050%=      5-min Rain = 0
KPFS 141750Z 20021G28KT 30/17 A2987 RMK A01 T02960168  RH  048%=      5-min Rain = 0
KPFS 141755Z 20021G29KT 30/17 A2987 RMK A01 T02990171  RH  049%=      5-min Rain = 0
KPFS 141800Z 20020G25KT 30/17 A2987 RMK A01 T02960169  RH  049%=      5-min Rain = 0
KPFS 141805Z 20021G27KT 30/17 A2986 RMK A01 T03020169  RH  047%=      5-min Rain = 0
KPFS 141810Z 20022G28KT 30/17 A2986 RMK A01 T03030169  RH  047%=      5-min Rain = 0
KPFS 141815Z 20021G30KT 30/17 A2986 RMK A01 T03020172  RH  048%=      5-min Rain = 0
KPFS 141820Z 19021G28KT 30/17 A2986 RMK A01 T02990169  RH  048%=      5-min Rain = 0
KPFS 141825Z 19019G26KT 30/17 A2986 RMK A01 T03010172  RH  048%=      5-min Rain = 0
KPFS 141830Z 20021G28KT 30/17 A2986 RMK A01 T03010170  RH  048%=      5-min Rain = 0
KPFS 141835Z 19020G27KT 31/17 A2986 RMK A01 T03060171  RH  047%=      5-min Rain = 0
KPFS 141840Z 20021G28KT 30/17 A2985 RMK A01 T03010169  RH  047%=      5-min Rain = 0
KPFS 141845Z 19020G27KT 31/17 A2985 RMK A01 T03080172  RH  046%=      5-min Rain = 0
KPFS 141850Z 19020G26KT 31/17 A2985 RMK A01 T03100172  RH  046%=      5-min Rain = 0
KPFS 141855Z 20021G27KT 31/17 A2985 RMK A01 T03140170  RH  044%=      5-min Rain = 0
KPFS 141900Z 19019G25KT 32/17 A2984 RMK A01 T03170167  RH  043%=      5-min Rain = 0
KPFS 141905Z 20020G26KT 32/16 A2984 RMK A01 T03170163  RH  041%=      5-min Rain = 0
KPFS 141910Z 18020G28KT 32/17 A2984 RMK A01 T03200165  RH  041%=      5-min Rain = 0
KPFS 141915Z 20020G27KT 32/16 A2984 RMK A01 T03180162  RH  041%=      5-min Rain = 0
KPFS 141920Z 19017G26KT 32/17 A2984 RMK A01 T03240168  RH  041%=      5-min Rain = 0
KPFS 141925Z 19019G26KT 32/17 A2984 RMK A01 T03220166  RH  041%=      5-min Rain = 0
KPFS 141930Z 19020G27KT 32/16 A2983 RMK A01 T03210163  RH  041%=      5-min Rain = 0
KPFS 141935Z 19020G27KT 32/16 A2983 RMK A01 T03220163  RH  040%=      5-min Rain = 0
KPFS 141940Z 19019G26KT 32/17 A2983 RMK A01 T03230165  RH  041%=      5-min Rain = 0
KPFS 141945Z 19019G26KT 33/17 A2983 RMK A01 T03270165  RH  040%=      5-min Rain = 0
KPFS 141950Z 19018G25KT 33/16 A2983 RMK A01 T03270164  RH  039%=      5-min Rain = 0
KPFS 141955Z 19021G28KT 33/16 A2983 RMK A01 T03280162  RH  039%=      5-min Rain = 0
KPFS 142000Z 19020G28KT 33/16 A2983 RMK A01 T03270162  RH  039%=      5-min Rain = 0
KPFS 142005Z 18019G27KT 33/17 A2982 RMK A01 T03300166  RH  039%=      5-min Rain = 0
KPFS 142010Z 19020G26KT 33/16 A2982 RMK A01 T03320163  RH  038%=      5-min Rain = 0
KPFS 142015Z 19019G26KT 33/16 A2982 RMK A01 T03330161  RH  038%=      5-min Rain = 0
KPFS 142020Z 18018G26KT 33/16 A2982 RMK A01 T03340164  RH  038%=      5-min Rain = 0
KPFS 142025Z 19020G27KT 34/16 A2981 RMK A01 T03360163  RH  037%=      5-min Rain = 0
KPFS 142030Z 19019G26KT 34/16 A2981 RMK A01 T03360164  RH  038%=      5-min Rain = 0
KPFS 142035Z 19018G24KT 34/17 A2981 RMK A01 T03380165  RH  038%=      5-min Rain = 0
KPFS 142040Z 19017G24KT 34/17 A2981 RMK A01 T03400166  RH  037%=      5-min Rain = 0
KPFS 142045Z 19018G24KT 34/17 A2981 RMK A01 T03400165  RH  037%=      5-min Rain = 0
KPFS 142050Z 19019G25KT 34/16 A2981 RMK A01 T03380161  RH  036%=      5-min Rain = 0
KPFS 142055Z 18017G25KT 34/16 A2981 RMK A01 T03410163  RH  036%=      5-min Rain = 0
KPFS 142100Z 19019G25KT 34/16 A2981 RMK A01 T03420163  RH  036%=      5-min Rain = 0
KPFS 142105Z 17020G25KT 34/16 A2981 RMK A01 T03380162  RH  037%=      5-min Rain = 0
KPFS 142110Z 18018G25KT 34/16 A298 RMK A01 T03400162  RH  036%=      5-min Rain = 0
KPFS 142115Z 19021G27KT 34/16 A298 RMK A01 T03420158  RH  035%=      5-min Rain = 0
KPFS 142120Z 18020G25KT 34/16 A298 RMK A01 T03420158  RH  035%=      5-min Rain = 0
KPFS 142125Z 18019G25KT 34/16 A2979 RMK A01 T03430159  RH  035%=      5-min Rain = 0
KPFS 142130Z 18020G28KT 35/16 A2979 RMK A01 T03450159  RH  035%=      5-min Rain = 0
KPFS 142135Z 18020G30KT 34/16 A2979 RMK A01 T03390156  RH  035%=      5-min Rain = 0
KPFS 142140Z 18021G28KT 34/16 A2978 RMK A01 T03420158  RH  035%=      5-min Rain = 0
KPFS 142145Z 18018G24KT 35/16 A2978 RMK A01 T03450161  RH  035%=      5-min Rain = 0
KPFS 142150Z 19017G25KT 35/16 A2978 RMK A01 T03460161  RH  035%=      5-min Rain = 0
KPFS 142155Z 19018G24KT 35/16 A2978 RMK A01 T03480160  RH  034%=      5-min Rain = 0
KPFS 142200Z 18018G26KT 35/16 A2978 RMK A01 T03470159  RH  034%=      5-min Rain = 0
KPFS 142205Z 18017G23KT 35/16 A2978 RMK A01 T03470160  RH  034%=      5-min Rain = 0
KPFS 142210Z 18018G23KT 34/16 A2978 RMK A01 T03400158  RH  035%=      5-min Rain = 0
KPFS 142215Z 18016G22KT 33/16 A2978 RMK A01 T03340157  RH  036%=      5-min Rain = 0
KPFS 142220Z 17017G22KT 33/16 A2978 RMK A01 T03320155  RH  036%=      5-min Rain = 0
KPFS 142225Z 18015G22KT 33/16 A2978 RMK A01 T03310156  RH  037%=      5-min Rain = 0
KPFS 142230Z 18014G19KT 33/16 A2978 RMK A01 T03310156  RH  037%=      5-min Rain = 0
KPFS 142235Z 17017G24KT 33/16 A2978 RMK A01 T03300159  RH  038%=      5-min Rain = 0
KPFS 142240Z 17016G23KT 33/16 A2977 RMK A01 T03300158  RH  037%=      5-min Rain = 0
KPFS 142245Z 17016G21KT 33/16 A2977 RMK A01 T03310160  RH  038%=      5-min Rain = 0
KPFS 142250Z 18015KT 33/16 A2977 RMK A01 T03310164  RH  038%=      5-min Rain = 0
KPFS 142255Z 17015KT 33/16 A2977 RMK A01 T03290161  RH  038%=      5-min Rain = 0
KPFS 142300Z 17014G19KT 33/16 A2977 RMK A01 T03270161  RH  039%=      5-min Rain = 0
KPFS 142305Z 17013KT 33/16 A2977 RMK A01 T03250163  RH  040%=      5-min Rain = 0
KPFS 142310Z 17012G17KT 32/17 A2977 RMK A01 T03230166  RH  041%=      5-min Rain = 0
KPFS 142315Z 17014G19KT 32/16 A2976 RMK A01 T03240163  RH  040%=      5-min Rain = 0
KPFS 142320Z 17013KT 32/17 A2976 RMK A01 T03240167  RH  041%=      5-min Rain = 0
KPFS 142325Z 17014KT 33/17 A2976 RMK A01 T03250167  RH  041%=      5-min Rain = 0
KPFS 142330Z 17013KT 33/17 A2976 RMK A01 T03260168  RH  041%=      5-min Rain = 0
KPFS 142335Z 17014G20KT 33/17 A2976 RMK A01 T03280169  RH  040%=      5-min Rain = 0
KPFS 142340Z 17014G19KT 33/17 A2976 RMK A01 T03270169  RH  041%=      5-min Rain = 0
KPFS 142345Z 17014G20KT 33/17 A2975 RMK A01 T03330171  RH  040%=      5-min Rain = 0
KPFS 142350Z 17015KT 33/17 A2975 RMK A01 T03340170  RH  039%=      5-min Rain = 0
KPFS 142355Z 17016G22KT 33/17 A2975 RMK A01 T03330169  RH  039%=      5-min Rain = 0
KPFS 150000Z 17015G22KT 33/17 A2974 RMK A01 T03310168  RH  040%=      5-min Rain = 0
KPFS 150005Z 17016G23KT 33/17 A2974 RMK A01 T03290166  RH  040%=      5-min Rain = 0
KPFS 150010Z 17018G25KT 33/16 A2974 RMK A01 T03280162  RH  039%=      5-min Rain = 0
KPFS 150015Z 17017G25KT 33/16 A2973 RMK A01 T03270161  RH  039%=      5-min Rain = 0
KPFS 150020Z 17019G25KT 33/16 A2973 RMK A01 T03260161  RH  039%=      5-min Rain = 0
KPFS 150025Z 17018G24KT 33/16 A2973 RMK A01 T03250162  RH  039%=      5-min Rain = 0
KPFS 150030Z 17017G22KT 32/16 A2973 RMK A01 T03240163  RH  040%=      5-min Rain = 0
KPFS 150035Z 17016G22KT 32/16 A2973 RMK A01 T03230163  RH  040%=      5-min Rain = 0
KPFS 150040Z 16016G23KT 32/16 A2973 RMK A01 T03200164  RH  041%=      5-min Rain = 0
KPFS 150045Z 17016G23KT 32/16 A2973 RMK A01 T03170164  RH  042%=      5-min Rain = 0
KPFS 150050Z 17015G21KT 31/16 A2974 RMK A01 T03130164  RH  043%=      5-min Rain = 0
KPFS 150055Z 17015KT 31/16 A2974 RMK A01 T03120164  RH  043%=      5-min Rain = 0
KPFS 150100Z 17015KT 31/17 A2974 RMK A01 T03090165  RH  044%=      5-min Rain = 0
KPFS 150105Z 16015G20KT 31/16 A2974 RMK A01 T03090164  RH  044%=      5-min Rain = 0
KPFS 150110Z 16015G22KT 31/16 A2974 RMK A01 T03070164  RH  044%=      5-min Rain = 0
KPFS 150115Z 16016G23KT 31/16 A2974 RMK A01 T03060163  RH  044%=      5-min Rain = 0
KPFS 150120Z 17015G20KT 31/16 A2975 RMK A01 T03050164  RH  045%=      5-min Rain = 0
KPFS 150125Z 16015KT 30/17 A2975 RMK A01 T03030165  RH  045%=      5-min Rain = 0
KPFS 150130Z 16014KT 30/17 A2975 RMK A01 T03000166  RH  047%=      5-min Rain = 0
KPFS 150135Z 16014G19KT 30/17 A2975 RMK A01 T02980167  RH  048%=      5-min Rain = 0
KPFS 150140Z 16013KT 30/17 A2975 RMK A01 T02950168  RH  049%=      5-min Rain = 0
KPFS 150145Z 16013KT 29/17 A2975 RMK A01 T02940168  RH  049%=      5-min Rain = 0
KPFS 150150Z 16013KT 29/17 A2975 RMK A01 T02920168  RH  050%=      5-min Rain = 0
KPFS 150155Z 16013KT 29/17 A2975 RMK A01 T02900168  RH  050%=      5-min Rain = 0
KPFS 150200Z 16013G18KT 29/17 A2975 RMK A01 T02900168  RH  050%=      5-min Rain = 0
KPFS 150205Z 17013KT 29/17 A2975 RMK A01 T02890168  RH  050%=      5-min Rain = 0
KPFS 150210Z 17014KT 29/17 A2975 RMK A01 T02880167  RH  051%=      5-min Rain = 0
KPFS 150215Z 17014G19KT 29/17 A2975 RMK A01 T02890166  RH  050%=      5-min Rain = 0
KPFS 150220Z 17015G20KT 29/17 A2975 RMK A01 T02900165  RH  049%=      5-min Rain = 0
KPFS 150225Z 16015KT 29/17 A2975 RMK A01 T02900165  RH  049%=      5-min Rain = 0
KPFS 150230Z 16015KT 29/17 A2974 RMK A01 T02880165  RH  050%=      5-min Rain = 0
KPFS 150235Z 16016G22KT 29/16 A2974 RMK A01 T02860164  RH  050%=      5-min Rain = 0
KPFS 150240Z 16015G20KT 29/16 A2974 RMK A01 T02870164  RH  049%=      5-min Rain = 0
KPFS 150245Z 17016G22KT 29/16 A2975 RMK A01 T02880163  RH  049%=      5-min Rain = 0
KPFS 150250Z 17016G22KT 29/16 A2976 RMK A01 T02870162  RH  049%=      5-min Rain = 0
KPFS 150255Z 17016KT 29/16 A2976 RMK A01 T02860161  RH  049%=      5-min Rain = 0
KPFS 150300Z 17017G23KT 29/16 A2976 RMK A01 T02870161  RH  049%=      5-min Rain = 0
KPFS 150305Z 17018G23KT 29/16 A2976 RMK A01 T02880160  RH  048%=      5-min Rain = 0
KPFS 150310Z 17017G24KT 29/16 A2977 RMK A01 T02870160  RH  049%=      5-min Rain = 0
KPFS 150315Z 17015G20KT 29/16 A2977 RMK A01 T02850161  RH  049%=      5-min Rain = 0
KPFS 150320Z 17016G21KT 29/16 A2977 RMK A01 T02850161  RH  049%=      5-min Rain = 0
KPFS 150325Z 17016G23KT 29/16 A2977 RMK A01 T02850161  RH  049%=      5-min Rain = 0
KPFS 150330Z 17017KT 29/16 A2977 RMK A01 T02850160  RH  049%=      5-min Rain = 0
KPFS 150335Z 18017G23KT 29/16 A2978 RMK A01 T02850161  RH  049%=      5-min Rain = 0
KPFS 150340Z 18014G19KT 28/16 A2978 RMK A01 T02830162  RH  050%=      5-min Rain = 0
KPFS 150345Z 18015KT 28/16 A2979 RMK A01 T02810162  RH  051%=      5-min Rain = 0
KPFS 150350Z 18015G20KT 28/16 A2979 RMK A01 T02800163  RH  051%=      5-min Rain = 0
KPFS 150355Z 18014G19KT 28/16 A2979 RMK A01 T02790163  RH  052%=      5-min Rain = 0
KPFS 150400Z 18016KT 28/16 A2979 RMK A01 T02800162  RH  051%=      5-min Rain = 0
KPFS 150405Z 18014G19KT 28/16 A298 RMK A01 T02790162  RH  051%=      5-min Rain = 0
KPFS 150410Z 19013G18KT 28/16 A298 RMK A01 T02770162  RH  052%=      5-min Rain = 0
KPFS 150415Z 19013G22KT 28/16 A298 RMK A01 T02770161  RH  052%=      5-min Rain = 0
KPFS 150420Z 19011G16KT 28/16 A2981 RMK A01 T02760161  RH  052%=      5-min Rain = 0
KPFS 150425Z 20010G16KT 28/16 A2981 RMK A01 T02750161  RH  052%=      5-min Rain = 0
KPFS 150430Z 20007KT 27/16 A2981 RMK A01 T02710161  RH  053%=      5-min Rain = 0
KPFS 150435Z 21005G10KT 27/16 A2981 RMK A01 T02700161  RH  054%=      5-min Rain = 0
KPFS 150440Z 21002KT 27/16 A2981 RMK A01 T02680160  RH  054%=      5-min Rain = 0
KPFS 150445Z 23001KT 27/16 A2981 RMK A01 T02680159  RH  054%=      5-min Rain = 0
KPFS 150450Z 28001KT 27/16 A2981 RMK A01 T02670160  RH  054%=      5-min Rain = 0
KPFS 150455Z 30000KT 26/16 A2981 RMK A01 T02640160  RH  055%=      5-min Rain = 0

Page generated in 0.0192 seconds.